Townsend, Tennessee
Current Conditions -  °F | °C
As of 4:53 PM on Saturday 25 Oct 2014 (Local Time) from KTYS Reporting Station
Few Clouds Few Clouds  
Wind Chill: 69°   Ceiling: Unl
Heat Index: 69°   Visibility: 10mi
Dew Point: 48°   Wind: 5mph
Humidity: 47%   Direction: 250°WSW
Pressure: 30.01"   Gusts: NA
Location:  35.68°N, 83.76°W
Report Text: KTYS 252053Z 25004KT 10SM FEW050 FEW250 21/09 A3001 RMK AO2 SLP159 T02060089 56016
Loading
Personal Weather Stations






























Interactive Weather Map
Tropical Storm Tracking
New forecast layout! Learn more

10-Day Weather Forecast

Advertisements
Track Severe Weather on mobile